createdAt,value
2019-05-10T00:01:59.908Z,77.11
2019-05-10T00:04:46.544Z,77.33
2019-05-10T00:07:33.406Z,77.86
2019-05-10T00:10:08.260Z,77.70
2019-05-10T00:12:48.771Z,77.67
2019-05-10T00:15:19.478Z,77.53
2019-05-10T00:17:52.739Z,76.99
2019-05-10T00:20:21.919Z,77.26
2019-05-10T00:22:50.985Z,77.16
2019-05-10T00:25:20.390Z,77.35
2019-05-10T00:27:49.488Z,76.80
2019-05-10T00:30:20.299Z,76.51
2019-05-10T00:32:49.663Z,76.76
2019-05-10T00:35:18.759Z,77.81
2019-05-10T00:37:47.890Z,77.97
2019-05-10T00:40:17.253Z,77.94
2019-05-10T00:42:48.057Z,78.77
2019-05-10T00:45:17.104Z,79.23
2019-05-10T00:47:46.462Z,78.70
2019-05-10T00:50:17.911Z,79.36
2019-05-10T00:52:47.886Z,78.69
2019-05-10T00:55:19.257Z,77.87
2019-05-10T00:57:49.381Z,77.31
2019-05-10T01:00:19.894Z,77.89
2019-05-10T01:02:49.170Z,78.33
2019-05-10T01:05:19.520Z,79.57
2019-05-10T01:07:48.547Z,79.91
2019-05-10T01:10:17.978Z,80.45
2019-05-10T01:12:47.075Z,79.81
2019-05-10T01:15:16.255Z,79.98
2019-05-10T01:17:45.622Z,79.78
2019-05-10T01:20:14.929Z,79.77
2019-05-10T01:22:44.006Z,80.12
2019-05-10T01:25:13.478Z,80.38
2019-05-10T01:27:42.602Z,79.83
2019-05-10T01:30:13.765Z,78.68
2019-05-10T01:32:43.185Z,78.24
2019-05-10T01:35:12.299Z,77.98
2019-05-10T01:37:44.224Z,76.83
2019-05-10T01:40:16.342Z,76.99
2019-05-10T01:42:45.444Z,76.86
2019-05-10T01:45:15.879Z,76.10
2019-05-10T01:47:45.440Z,76.76
2019-05-10T01:50:14.590Z,77.43
2019-05-10T01:52:45.401Z,75.90
2019-05-10T01:55:18.959Z,76.07
2019-05-10T01:57:48.022Z,76.19
2019-05-10T02:00:18.509Z,76.42
2019-05-10T02:02:48.545Z,76.59
2019-05-10T02:05:17.698Z,77.13
2019-05-10T02:07:46.869Z,77.86
2019-05-10T02:10:20.958Z,77.49
2019-05-10T02:12:51.293Z,77.81
2019-05-10T02:15:20.760Z,77.52
2019-05-10T02:17:52.926Z,77.64
2019-05-10T02:20:22.773Z,77.23
2019-05-10T02:22:51.849Z,77.58
2019-05-10T02:25:21.362Z,79.86
2019-05-10T02:27:52.281Z,78.99
2019-05-10T02:30:21.371Z,77.96
2019-05-10T02:32:53.644Z,77.96
2019-05-10T02:35:25.975Z,79.00
2019-05-10T02:37:56.895Z,78.81
2019-05-10T02:40:26.360Z,78.59
2019-05-10T02:42:56.677Z,78.31
2019-05-10T02:45:28.242Z,80.01
2019-05-10T02:48:00.872Z,78.42
2019-05-10T02:50:31.102Z,79.85
2019-05-10T02:53:00.569Z,79.56
2019-05-10T02:55:31.875Z,79.64
2019-05-10T02:58:02.769Z,79.72
2019-05-10T03:00:34.669Z,79.87
2019-05-10T03:03:05.841Z,79.48
2019-05-10T03:05:38.087Z,79.81
2019-05-10T03:08:10.591Z,80.45
2019-05-10T03:10:42.909Z,80.19
2019-05-10T03:13:15.722Z,80.82
2019-05-10T03:15:47.553Z,80.91
2019-05-10T03:18:16.982Z,79.34
2019-05-10T03:20:47.898Z,79.47
2019-05-10T03:23:17.633Z,80.32
2019-05-10T03:25:46.865Z,78.78
2019-05-10T03:28:16.078Z,79.42
2019-05-10T03:30:45.438Z,78.28
2019-05-10T03:33:14.477Z,77.77
2019-05-10T03:35:46.614Z,77.03
2019-05-10T03:38:16.011Z,78.24
2019-05-10T03:40:45.251Z,78.59
2019-05-10T03:43:16.434Z,78.74
2019-05-10T03:45:45.844Z,79.29
2019-05-10T03:48:14.921Z,78.03
2019-05-10T03:50:43.987Z,78.47
2019-05-10T03:53:13.024Z,79.07
2019-05-10T03:55:44.827Z,77.56
2019-05-10T03:58:15.477Z,78.00
2019-05-10T04:00:44.581Z,76.95
2019-05-10T04:03:13.622Z,77.54
2019-05-10T04:05:43.023Z,76.13
2019-05-10T04:08:12.151Z,76.99
2019-05-10T04:10:41.355Z,77.60
2019-05-10T04:13:10.743Z,77.33
2019-05-10T04:15:42.962Z,76.36
2019-05-10T04:18:13.313Z,76.14
2019-05-10T04:20:42.892Z,75.82
2019-05-10T04:23:12.016Z,76.03
2019-05-10T04:25:41.144Z,76.30
2019-05-10T04:28:10.507Z,76.73
2019-05-10T04:30:40.312Z,76.96
2019-05-10T04:33:09.442Z,77.52
2019-05-10T04:35:38.911Z,76.42
2019-05-10T04:38:08.009Z,76.96
2019-05-10T04:40:37.101Z,76.54
2019-05-10T04:43:08.795Z,77.08
2019-05-10T04:45:37.879Z,77.51
2019-05-10T04:48:06.945Z,76.44
2019-05-10T04:50:40.130Z,76.80
2019-05-10T04:53:10.641Z,77.62
2019-05-10T04:55:39.639Z,75.95
2019-05-10T04:58:10.414Z,77.40
2019-05-10T05:00:40.872Z,77.87
2019-05-10T05:03:11.547Z,77.46
2019-05-10T05:05:40.974Z,76.89
2019-05-10T05:08:11.628Z,76.18
2019-05-10T05:10:40.710Z,76.14
2019-05-10T05:13:13.285Z,75.77
2019-05-10T05:15:45.490Z,76.12
2019-05-10T05:18:14.872Z,75.50
2019-05-10T05:20:44.016Z,74.54
2019-05-10T05:23:13.630Z,75.02
2019-05-10T05:25:43.019Z,76.14
2019-05-10T05:28:12.449Z,74.60
2019-05-10T05:30:42.881Z,75.08
2019-05-10T05:33:18.307Z,76.16
2019-05-10T05:35:50.143Z,75.92
2019-05-10T05:38:19.458Z,75.89
2019-05-10T05:40:48.908Z,75.68
2019-05-10T05:43:21.242Z,74.59
2019-05-10T05:45:50.377Z,73.94
2019-05-10T05:48:21.496Z,73.14
2019-05-10T05:50:50.880Z,72.73
2019-05-10T05:53:22.545Z,73.11
2019-05-10T05:55:51.404Z,73.15
2019-05-10T05:58:26.534Z,73.24
2019-05-10T06:00:52.580Z,72.90
2019-05-10T06:03:27.599Z,72.73
2019-05-10T06:05:54.041Z,72.28
2019-05-10T06:08:29.719Z,73.41
2019-05-10T06:11:00.302Z,74.14
2019-05-10T06:13:30.660Z,73.70
2019-05-10T06:16:00.776Z,74.21
2019-05-10T06:18:31.259Z,75.83
2019-05-10T06:21:02.193Z,75.56
2019-05-10T06:23:35.030Z,75.20
2019-05-10T06:26:03.785Z,74.37
2019-05-10T06:28:57.710Z,75.13
2019-05-10T06:31:06.700Z,74.62
2019-05-10T06:33:39.616Z,74.54
2019-05-10T06:36:06.949Z,74.45
2019-05-10T06:38:36.070Z,75.07
2019-05-10T06:41:10.024Z,75.40
2019-05-10T06:43:38.811Z,74.62
2019-05-10T06:46:07.977Z,73.32
2019-05-10T06:48:37.051Z,73.70
2019-05-10T06:51:09.767Z,74.26
2019-05-10T06:53:41.588Z,73.03
2019-05-10T06:56:11.489Z,72.14
2019-05-10T06:58:41.040Z,71.17
2019-05-10T07:01:10.445Z,71.39
2019-05-10T07:03:39.678Z,70.81
2019-05-10T07:06:08.838Z,70.36
2019-05-10T07:08:44.326Z,69.63
2019-05-10T07:11:10.062Z,66.55
2019-05-10T07:13:40.532Z,67.30
2019-05-10T07:16:14.947Z,67.49
2019-05-10T07:18:41.253Z,67.85
2019-05-10T07:21:10.599Z,67.63
2019-05-10T07:23:44.835Z,67.15
2019-05-10T07:26:17.355Z,67.33
2019-05-10T07:28:45.433Z,67.23
2019-05-10T07:31:24.989Z,67.23
2019-05-10T07:34:03.889Z,67.65
2019-05-10T07:36:32.656Z,66.57
2019-05-10T07:39:02.665Z,66.79
2019-05-10T07:41:36.938Z,67.68
2019-05-10T07:44:10.564Z,68.56
2019-05-10T07:46:45.705Z,67.28
2019-05-10T07:49:10.549Z,67.01
2019-05-10T07:51:39.999Z,67.36
2019-05-10T07:54:12.141Z,67.87
2019-05-10T07:56:45.585Z,65.45
2019-05-10T07:59:16.184Z,66.21
2019-05-10T08:01:48.957Z,65.89
2019-05-10T08:04:19.855Z,64.94
2019-05-10T08:06:51.864Z,63.51
2019-05-10T08:09:19.317Z,62.98
2019-05-10T08:11:54.136Z,63.50
2019-05-10T08:14:25.104Z,62.41
2019-05-10T08:16:58.303Z,62.88
2019-05-10T08:19:24.051Z,62.69
2019-05-10T08:21:58.070Z,62.60
2019-05-10T08:24:24.341Z,63.45
2019-05-10T08:27:06.808Z,64.32
2019-05-10T08:29:32.865Z,64.31
2019-05-10T08:32:04.705Z,65.29
2019-05-10T08:34:35.603Z,66.02
2019-05-10T08:37:04.680Z,65.62
2019-05-10T08:39:43.888Z,66.37
2019-05-10T08:42:27.445Z,66.05
2019-05-10T08:46:56.610Z,65.90
2019-05-10T08:49:32.518Z,65.53
2019-05-10T08:51:56.848Z,65.84
2019-05-10T08:54:26.683Z,64.46
2019-05-10T08:57:01.115Z,63.65
2019-05-10T08:59:30.264Z,62.70
2019-05-10T09:01:57.723Z,62.90
2019-05-10T09:04:33.849Z,63.42
2019-05-10T09:07:02.623Z,63.53
2019-05-10T09:09:33.847Z,63.36
2019-05-10T09:12:08.988Z,62.07
2019-05-10T09:14:32.953Z,61.22
2019-05-10T09:17:04.355Z,61.99
2019-05-10T09:19:37.499Z,62.60
2019-05-10T09:22:07.158Z,62.97
2019-05-10T09:24:43.156Z,62.49
2019-05-10T09:27:07.061Z,61.77
2019-05-10T09:29:37.485Z,61.41
2019-05-10T09:32:06.912Z,59.63
2019-05-10T09:34:36.221Z,60.50
2019-05-10T09:37:08.031Z,59.97
2019-05-10T09:39:36.201Z,59.04
2019-05-10T09:42:09.911Z,59.50
2019-05-10T09:44:37.435Z,58.89
2019-05-10T09:47:06.460Z,58.05
2019-05-10T09:49:36.740Z,58.13
2019-05-10T09:52:12.777Z,57.96
2019-05-10T09:54:40.607Z,56.83
2019-05-10T09:57:10.076Z,55.10
2019-05-10T09:59:39.395Z,54.78
2019-05-10T10:02:14.580Z,54.17
2019-05-10T10:04:39.288Z,53.60
2019-05-10T10:07:08.715Z,53.79
2019-05-10T10:09:44.530Z,51.70
2019-05-10T10:12:08.662Z,52.35
2019-05-10T10:14:42.599Z,51.83
2019-05-10T10:17:08.888Z,52.06
2019-05-10T10:19:40.706Z,51.42
2019-05-10T10:22:11.104Z,51.27
2019-05-10T10:24:41.108Z,51.36
2019-05-10T10:27:10.629Z,51.25
2019-05-10T10:29:43.229Z,51.15
2019-05-10T10:32:13.608Z,51.77
2019-05-10T10:34:43.287Z,52.10
2019-05-10T10:37:14.611Z,51.47
2019-05-10T10:39:43.416Z,51.73
2019-05-10T10:42:13.416Z,51.38
2019-05-10T10:44:42.612Z,50.85
2019-05-10T10:47:11.724Z,51.12
2019-05-10T10:49:41.261Z,50.76
2019-05-10T10:52:13.496Z,50.60
2019-05-10T10:54:42.350Z,50.76
2019-05-10T10:57:11.796Z,51.93
2019-05-10T10:59:40.879Z,50.78
2019-05-10T11:02:31.506Z,51.29
2019-05-10T11:04:46.938Z,50.87
2019-05-10T11:07:12.288Z,50.79
2019-05-10T11:09:41.385Z,50.22
2019-05-10T11:12:14.691Z,49.83
2019-05-10T11:14:45.374Z,50.04
2019-05-10T11:17:12.440Z,50.09
2019-05-10T11:19:41.804Z,48.66
2019-05-10T11:22:11.071Z,48.40
2019-05-10T11:24:40.528Z,48.35
2019-05-10T11:27:13.097Z,47.78
2019-05-10T11:29:41.790Z,46.36
2019-05-10T11:32:16.768Z,46.27
2019-05-10T11:34:43.122Z,45.87
2019-05-10T11:37:12.251Z,45.79
2019-05-10T11:39:46.676Z,46.21
2019-05-10T11:42:15.412Z,46.50
2019-05-10T11:44:50.185Z,46.55
2019-05-10T11:47:24.019Z,46.70
2019-05-10T11:49:44.772Z,45.86
2019-05-10T11:52:13.877Z,45.16
2019-05-10T11:54:44.082Z,44.17
2019-05-10T11:57:13.957Z,43.62
2019-05-10T11:59:43.160Z,43.45
2019-05-10T12:02:33.910Z,41.51
2019-05-10T12:04:43.601Z,41.53
2019-05-10T12:07:13.153Z,40.52
2019-05-10T12:09:43.719Z,39.81
2019-05-10T12:12:12.765Z,39.49
2019-05-10T12:14:43.644Z,38.30
2019-05-10T12:17:14.319Z,39.26
2019-05-10T12:19:48.772Z,39.71
2019-05-10T12:22:15.786Z,39.83
2019-05-10T12:26:33.848Z,41.62
2019-05-10T12:27:25.367Z,42.04
2019-05-10T12:29:55.556Z,42.80
2019-05-10T12:32:17.867Z,43.16
2019-05-10T12:34:52.049Z,42.93
2019-05-10T12:37:17.691Z,42.86
2019-05-10T12:39:47.003Z,42.57
2019-05-10T12:42:16.309Z,42.26
2019-05-10T12:44:48.055Z,42.51
2019-05-10T12:47:16.192Z,42.72
2019-05-10T12:49:45.229Z,42.45
2019-05-10T12:52:16.185Z,42.48
2019-05-10T12:54:46.346Z,42.09
2019-05-10T12:57:16.774Z,42.44
2019-05-10T12:59:45.819Z,42.05
2019-05-10T13:02:15.174Z,42.27
2019-05-10T13:04:47.198Z,41.96
2019-05-10T13:07:15.051Z,42.07
2019-05-10T13:09:44.445Z,42.55
2019-05-10T13:12:13.531Z,40.98
2019-05-10T13:14:46.576Z,38.21
2019-05-10T13:17:16.935Z,37.00
2019-05-10T13:19:44.482Z,36.03
2019-05-10T13:22:13.586Z,34.86
2019-05-10T13:24:42.913Z,33.41
2019-05-10T13:27:11.976Z,32.69
2019-05-10T13:29:46.494Z,32.29
2019-05-10T13:32:14.796Z,30.66
2019-05-10T13:34:42.931Z,29.82
2019-05-10T13:37:13.627Z,29.79
2019-05-10T13:39:44.161Z,28.81
2019-05-10T13:42:13.215Z,28.14
2019-05-10T13:44:42.838Z,27.33
2019-05-10T13:47:13.427Z,26.74
2019-05-10T13:49:42.499Z,26.49
2019-05-10T13:52:11.639Z,28.09
2019-05-10T13:54:40.963Z,29.07
2019-05-10T13:57:10.210Z,31.65
2019-05-10T13:59:39.397Z,32.91
2019-05-10T14:02:08.770Z,33.88
2019-05-10T14:04:38.607Z,34.13
2019-05-10T14:07:08.689Z,34.67
2019-05-10T14:09:38.338Z,34.65
2019-05-10T14:12:07.404Z,35.41
2019-05-10T14:14:36.494Z,36.08
2019-05-10T14:17:05.959Z,35.62
2019-05-10T14:19:35.973Z,36.43
2019-05-10T14:22:08.326Z,36.66
2019-05-10T14:24:37.688Z,39.59
2019-05-10T14:29:34.821Z,40.19
2019-05-10T14:32:02.565Z,39.10
2019-05-10T14:34:31.686Z,39.30
2019-05-10T14:37:00.793Z,38.84
2019-05-10T14:39:31.265Z,38.57
2019-05-10T14:42:00.358Z,38.68
2019-05-10T14:44:29.477Z,39.77
2019-05-10T14:46:58.868Z,42.16
2019-05-10T14:49:27.967Z,43.80
2019-05-10T14:51:59.342Z,44.41
2019-05-10T14:54:42.640Z,46.30
2019-05-10T14:56:58.966Z,46.06
2019-05-10T14:59:28.057Z,46.42
2019-05-10T15:01:57.509Z,46.96
2019-05-10T15:04:44.420Z,47.97
2019-05-10T15:06:57.574Z,48.08
2019-05-10T15:09:26.933Z,49.55
2019-05-10T15:11:56.041Z,49.98
2019-05-10T15:14:25.174Z,49.14
2019-05-10T15:16:54.542Z,48.85
2019-05-10T15:19:26.444Z,47.44
2019-05-10T15:21:54.645Z,46.60
2019-05-10T15:24:23.985Z,42.92
2019-05-10T15:26:53.032Z,39.41
2019-05-10T15:29:24.523Z,39.43
2019-05-10T15:31:52.901Z,38.78
2019-05-10T15:34:22.017Z,37.52
2019-05-10T15:36:51.455Z,35.84
2019-05-10T15:39:22.900Z,36.00
2019-05-10T15:41:53.608Z,35.58
2019-05-10T15:44:30.097Z,35.33
2019-05-10T15:46:53.209Z,35.56
2019-05-10T15:49:24.371Z,36.33
2019-05-10T15:52:00.461Z,36.34
2019-05-10T15:54:24.869Z,38.63
2019-05-10T15:56:55.596Z,39.79
2019-05-10T15:59:25.031Z,39.98
2019-05-10T16:01:54.414Z,39.56
2019-05-10T16:04:23.555Z,40.10
2019-05-10T16:06:52.626Z,41.80
2019-05-10T16:09:22.534Z,43.06
2019-05-10T16:11:56.028Z,43.15
2019-05-10T16:14:22.435Z,43.35
2019-05-10T16:16:51.914Z,44.18
2019-05-10T16:19:22.539Z,44.04
2019-05-10T16:21:54.670Z,44.60
2019-05-10T16:24:44.121Z,45.12
2019-05-10T16:27:13.569Z,45.60
2019-05-10T16:29:44.370Z,45.61
2019-05-10T16:32:13.416Z,46.25
2019-05-10T16:34:42.612Z,46.28
2019-05-10T16:37:12.542Z,47.28
2019-05-10T16:39:41.721Z,46.84
2019-05-10T16:42:10.811Z,46.08
2019-05-10T16:44:52.337Z,45.56
2019-05-10T16:47:21.928Z,44.84
2019-05-10T16:49:55.825Z,44.25
2019-05-10T16:52:27.950Z,44.40
2019-05-10T16:54:57.984Z,44.53
2019-05-10T16:57:31.869Z,45.15
2019-05-10T17:00:01.877Z,44.28
2019-05-10T17:02:28.764Z,43.77
2019-05-10T17:04:57.853Z,43.78
2019-05-10T17:07:26.984Z,43.58
2019-05-10T17:09:56.396Z,43.92
2019-05-10T17:12:27.491Z,44.09
2019-05-10T17:15:02.006Z,43.45
2019-05-10T17:17:31.246Z,43.44
2019-05-10T17:19:58.800Z,43.45
2019-05-10T17:22:27.863Z,43.65
2019-05-10T17:25:03.308Z,43.36
2019-05-10T17:27:28.137Z,43.83
2019-05-10T17:29:57.311Z,43.71
2019-05-10T17:32:26.854Z,43.75
2019-05-10T17:34:59.253Z,43.88
2019-05-10T17:37:29.766Z,43.79
2019-05-10T17:39:57.757Z,43.95
2019-05-10T17:42:26.875Z,44.83
2019-05-10T17:45:01.658Z,44.47
2019-05-10T17:47:31.644Z,44.83
2019-05-10T17:49:57.778Z,44.94
2019-05-10T17:52:26.811Z,45.00
2019-05-10T17:54:56.176Z,45.25
2019-05-10T17:57:25.232Z,45.43
2019-05-10T17:59:54.664Z,44.69
2019-05-10T18:02:24.169Z,45.05
2019-05-10T18:04:53.236Z,44.91
2019-05-10T18:07:22.286Z,44.39
2019-05-10T18:09:51.719Z,44.42
2019-05-10T18:12:26.120Z,44.49
2019-05-10T18:14:56.027Z,44.86
2019-05-10T18:17:25.883Z,45.21
2019-05-10T18:19:56.664Z,45.14
2019-05-10T18:22:24.517Z,45.10
2019-05-10T18:24:53.924Z,45.50
2019-05-10T18:27:23.025Z,45.31
2019-05-10T18:29:52.131Z,46.15
2019-05-10T18:32:22.685Z,46.02
2019-05-10T18:34:51.921Z,46.08
2019-05-10T18:37:21.848Z,46.33
2019-05-10T18:39:52.875Z,46.56
2019-05-10T18:42:25.529Z,47.03
2019-05-10T18:44:54.204Z,46.47
2019-05-10T18:47:23.718Z,46.55
2019-05-10T18:49:52.800Z,46.21
2019-05-10T18:52:21.873Z,46.06
2019-05-10T18:54:51.296Z,46.34
2019-05-10T18:57:20.358Z,45.68
2019-05-10T18:59:49.544Z,45.79
2019-05-10T19:02:19.942Z,46.19
2019-05-10T19:04:52.023Z,46.87
2019-05-10T19:07:20.068Z,47.10
2019-05-10T19:09:49.521Z,47.23
2019-05-10T19:12:22.021Z,47.69
2019-05-10T19:14:49.479Z,47.41
2019-05-10T19:17:19.910Z,47.74
2019-05-10T19:19:48.969Z,47.45
2019-05-10T19:22:18.058Z,47.94
2019-05-10T19:24:47.443Z,47.63
2019-05-10T19:27:16.630Z,47.70
2019-05-10T19:29:47.805Z,48.07
2019-05-10T19:32:20.068Z,48.19
2019-05-10T19:34:56.955Z,48.60
2019-05-10T19:37:29.660Z,48.97
2019-05-10T19:39:50.597Z,49.49
2019-05-10T19:42:19.886Z,49.91
2019-05-10T19:44:49.594Z,49.56
2019-05-10T19:47:20.078Z,49.55
2019-05-10T19:49:51.865Z,49.60
2019-05-10T19:52:25.613Z,49.46
2019-05-10T19:54:51.947Z,49.54
2019-05-10T19:57:20.986Z,49.44
2019-05-10T19:59:50.352Z,49.50
2019-05-10T20:02:19.717Z,49.60
2019-05-10T20:04:48.776Z,49.28
2019-05-10T20:07:17.842Z,49.31
2019-05-10T20:09:47.385Z,49.33
2019-05-10T20:12:16.657Z,49.00
2019-05-10T20:14:45.811Z,49.21
2019-05-10T20:17:14.982Z,49.48
2019-05-10T20:19:44.112Z,49.21
2019-05-10T20:22:13.518Z,49.17
2019-05-10T20:24:42.712Z,49.52
2019-05-10T20:27:11.848Z,49.31
2019-05-10T20:29:51.349Z,49.03
2019-05-10T20:32:27.205Z,49.42
2019-05-10T20:35:03.999Z,49.17
2019-05-10T20:37:34.822Z,49.40
2019-05-10T20:40:15.336Z,49.89
2019-05-10T20:42:44.450Z,49.59
2019-05-10T20:45:48.411Z,49.91
2019-05-10T20:48:18.530Z,50.76
2019-05-10T20:50:49.259Z,51.52
2019-05-10T20:53:32.719Z,51.87
2019-05-10T20:56:02.917Z,52.51
2019-05-10T20:58:32.373Z,54.32
2019-05-10T21:01:02.290Z,55.62
2019-05-10T21:03:32.052Z,56.50
2019-05-10T21:06:01.377Z,57.41
2019-05-10T21:08:30.442Z,57.77
2019-05-10T21:11:00.298Z,58.42
2019-05-10T21:13:29.469Z,59.01
2019-05-10T21:16:03.756Z,58.71
2019-05-10T21:18:33.414Z,59.20
2019-05-10T21:21:02.972Z,59.42
2019-05-10T21:23:32.270Z,59.58
2019-05-10T21:26:01.847Z,60.18
2019-05-10T21:28:31.060Z,60.21
2019-05-10T21:31:00.251Z,59.94
2019-05-10T21:33:29.847Z,60.71
2019-05-10T21:35:59.285Z,61.26
2019-05-10T21:38:33.069Z,61.37
2019-05-10T21:40:59.659Z,60.83
2019-05-10T21:43:29.242Z,61.11
2019-05-10T21:45:58.553Z,60.98
2019-05-10T21:48:27.999Z,61.60
2019-05-10T21:50:57.204Z,61.78
2019-05-10T21:53:26.427Z,62.75
2019-05-10T21:55:55.835Z,63.17
2019-05-10T21:58:24.957Z,63.46
2019-05-10T22:00:54.477Z,64.08
2019-05-10T22:03:23.619Z,64.76
2019-05-10T22:05:52.688Z,64.58
2019-05-10T22:08:21.788Z,65.94
2019-05-10T22:10:51.289Z,66.11
2019-05-10T22:13:20.437Z,66.96
2019-05-10T22:15:49.518Z,66.64
2019-05-10T22:18:18.680Z,67.04
2019-05-10T22:20:48.044Z,67.67
2019-05-10T22:23:17.120Z,68.19
2019-05-10T22:25:46.176Z,68.60
2019-05-10T22:28:15.287Z,68.19
2019-05-10T22:30:44.376Z,68.03
2019-05-10T22:33:13.435Z,68.35
2019-05-10T22:35:42.437Z,68.60
2019-05-10T22:38:12.024Z,68.90
2019-05-10T22:40:41.414Z,69.02
2019-05-10T22:43:10.537Z,68.99
2019-05-10T22:45:40.051Z,69.08
2019-05-10T22:48:09.087Z,68.83
2019-05-10T22:50:38.157Z,68.13
2019-05-10T22:53:07.219Z,68.43
2019-05-10T22:55:36.617Z,69.29
2019-05-10T22:58:08.793Z,68.41
2019-05-10T23:00:37.846Z,68.65
2019-05-10T23:03:07.183Z,68.58
2019-05-10T23:05:36.208Z,69.57
2019-05-10T23:08:08.456Z,70.34
2019-05-10T23:10:38.056Z,70.71
2019-05-10T23:13:07.121Z,69.71
2019-05-10T23:15:36.201Z,70.26
2019-05-10T23:18:08.256Z,70.70
2019-05-10T23:20:37.913Z,70.08
2019-05-10T23:23:07.048Z,70.76
2019-05-10T23:25:36.111Z,71.80
2019-05-10T23:28:05.970Z,72.88
2019-05-10T23:30:35.489Z,73.99
2019-05-10T23:33:04.601Z,75.39
2019-05-10T23:35:33.617Z,75.88
2019-05-10T23:38:06.260Z,74.32
2019-05-10T23:40:35.306Z,73.97
2019-05-10T23:43:05.452Z,73.95
2019-05-10T23:45:34.501Z,73.80
2019-05-10T23:48:06.342Z,74.01
2019-05-10T23:50:35.382Z,74.00
2019-05-10T23:53:05.004Z,74.64
2019-05-10T23:55:34.098Z,76.67
2019-05-10T23:58:06.356Z,75.51
